aviador You're here:

KOFF Decoded Metar

OMAHA in NE, USA
Report Time2017-09-21 13:56:00
UTC Time2017-09-21 14:05:51
Flight Rules vfr VFR
Wind110° at 08 kt
W.Decomp.*RWY 12: 7.7 kt HW 2.1 kt LCW
W.Rank110° ranks 2
Current wind is above 110° avg. (6.7)
Visibility9999 m
Phenomena:N/A
Clouds:N/A
Expected CloudBase > 1,600 ft AGL from Temp-Dew spread
CeilingNone
Temp22°C (ISA +9)
Dew Point18°C (78% RH)
AAT21.9°C
QNH1011 hPa
Density Alt2,448 ft
Elevation1,047 ft
Report Wrong Elevation
Raw Report
METAR KOFF 211356Z AUTO 11008KT 10SM CLR 22/18 A2986 RMK AO2 SLP110
T02180182 $=

Extra information for KOFF:More info

Metar Taf Metar & Taf Last 4 Metars F.Rules Stats Wind Profile Meteogram Temp Stats Airport Information Weather charts Add Link Nearby VenuesMetar ALERT Operation Metar Decoded Social comments

AIRNAV info for KOFF